Aérodrome :
LOGIN :

S'inscrire | Disclaimer

   EN    FR    IT 

 










Légende :    VFR   VFR Marginal   IFR   IFR Intensif   IFR Très Intensif
Visi : 
Plafond : 
>= 8 km
>= 3000ft
5 à 8 km
1000 à 3000 ft
1500m à 5 km
500 à 1000 ft
800 à 1500m
200 à 500 ft
< 800m
< 200 ft
Symboles :   Orages  Brouillard  Fortes neiges  Fortes précipitations  Vent > 20 kt
SIGMETs :   Divers  Orages  Givrage  Turbulence  Onde Orograph.  Cendres Volcan.







- Altitude de l'aérodrome : 236 ft
- Code IATA : MMX


ESMS - Malmö Sturup

DERNIER METAR :
  • 190420Z 25013KT 9999 SCT009 BKN015 05/04 Q0995 R17/29//95

METARs EXPIRÉS :
  • 190350Z 25015KT 9999 -RA BKN008 04/03 Q0995 RERA R17/29//95
  • 190320Z 26017KT 9999 BKN012 05/03 Q0995 REDZ R17/29//95
  • 190250Z 26015KT 9999 BKN016 05/03 Q0996 R17/29//95
  • 190220Z 26016KT 9999 BKN020 05/03 Q0996 R17/29//95
  • 190150Z 25015KT 9999 FEW028 05/02 Q0996 R17/29//95

TAF TAF ESMS
Valide du 19 à 00h jusqu'au 20 à 00h UTC


182320Z 1900/1924 26015KT 9999 SCT030
TEMPO 1900/1912 SHRA BKN012 SCT020CB
TEMPO 1912/1918 4000 SHRASN BKN008 SCT020CB
BECMG 1913/1916 33015KT
Pas de NOTAMs connus pour ce terrain.



MET'MAP, la Météo Aéronautique d'un coup d'oeil ! - Copyright ORBIFLY Décembre 2007 - Disclaimer

ORBIFLY MET'MAP TEAM :

Programmation & Développement : Alexandra Zaïnal
Conception & Développement : Baudouin d'Aumeries
Co-Programmation & Développement : Marc-Olivier Méhu
Soutien technique & logistique : Manuel Goepfert

Contact : metmap@orbifly.com




SOURCES & CREDITS :

   NOAA